sensor_id;sensor_type;location;lat;lon;timestamp;pressure;altitude;pressure_sealevel;temperature;humidity
50634;BME280;36596;55.798;38.462;2022-07-04T00:01:23;99511.16;;;19.74;100.00
50634;BME280;36596;55.798;38.462;2022-07-04T00:03:49;99504.56;;;19.79;100.00
50634;BME280;36596;55.798;38.462;2022-07-04T00:06:15;99511.28;;;19.94;100.00
50634;BME280;36596;55.798;38.462;2022-07-04T00:08:41;99521.31;;;19.99;100.00
50634;BME280;36596;55.798;38.462;2022-07-04T00:11:06;99519.56;;;19.94;100.00
50634;BME280;36596;55.798;38.462;2022-07-04T00:13:32;99512.34;;;19.89;100.00
50634;BME280;36596;55.798;38.462;2022-07-04T00:15:58;99514.69;;;20.03;100.00
50634;BME280;36596;55.798;38.462;2022-07-04T00:18:24;99513.78;;;20.15;100.00
50634;BME280;36596;55.798;38.462;2022-07-04T00:20:50;99516.38;;;20.08;100.00
50634;BME280;36596;55.798;38.462;2022-07-04T00:23:16;99525.41;;;19.89;100.00
50634;BME280;36596;55.798;38.462;2022-07-04T00:25:42;99522.84;;;19.68;100.00
50634;BME280;36596;55.798;38.462;2022-07-04T00:28:08;99528.72;;;19.50;100.00
50634;BME280;36596;55.798;38.462;2022-07-04T00:30:33;99525.06;;;19.34;100.00
50634;BME280;36596;55.798;38.462;2022-07-04T00:32:59;99525.13;;;19.21;100.00
50634;BME280;36596;55.798;38.462;2022-07-04T00:35:25;99524.84;;;19.11;100.00
50634;BME280;36596;55.798;38.462;2022-07-04T00:37:51;99531.66;;;19.01;100.00
50634;BME280;36596;55.798;38.462;2022-07-04T00:40:17;99519.69;;;18.84;100.00
50634;BME280;36596;55.798;38.462;2022-07-04T00:42:43;99529.59;;;18.85;100.00
50634;BME280;36596;55.798;38.462;2022-07-04T00:45:09;99526.81;;;18.85;100.00
50634;BME280;36596;55.798;38.462;2022-07-04T00:47:35;99530.84;;;19.00;100.00
50634;BME280;36596;55.798;38.462;2022-07-04T00:50:01;99535.56;;;19.28;100.00
50634;BME280;36596;55.798;38.462;2022-07-04T00:52:29;99539.78;;;19.50;100.00
50634;BME280;36596;55.798;38.462;2022-07-04T00:54:55;99536.69;;;19.68;100.00
50634;BME280;36596;55.798;38.462;2022-07-04T00:57:22;99533.59;;;19.85;100.00
50634;BME280;36596;55.798;38.462;2022-07-04T00:59:47;99537.91;;;19.99;100.00
50634;BME280;36596;55.798;38.462;2022-07-04T01:02:13;99537.38;;;20.09;100.00
50634;BME280;36596;55.798;38.462;2022-07-04T01:04:39;99543.78;;;20.13;100.00
50634;BME280;36596;55.798;38.462;2022-07-04T01:07:05;99544.69;;;20.17;100.00
50634;BME280;36596;55.798;38.462;2022-07-04T01:09:32;99545.41;;;19.98;100.00
50634;BME280;36596;55.798;38.462;2022-07-04T01:11:58;99540.34;;;19.72;100.00
50634;BME280;36596;55.798;38.462;2022-07-04T01:14:24;99536.53;;;19.48;100.00
50634;BME280;36596;55.798;38.462;2022-07-04T01:16:49;99537.41;;;19.36;100.00
50634;BME280;36596;55.798;38.462;2022-07-04T01:19:15;99547.34;;;19.25;100.00
50634;BME280;36596;55.798;38.462;2022-07-04T01:21:41;99537.97;;;19.14;100.00
50634;BME280;36596;55.798;38.462;2022-07-04T01:24:10;99553.41;;;19.02;100.00
50634;BME280;36596;55.798;38.462;2022-07-04T01:26:37;99540.44;;;18.91;100.00
50634;BME280;36596;55.798;38.462;2022-07-04T01:29:02;99549.28;;;18.84;100.00
50634;BME280;36596;55.798;38.462;2022-07-04T01:31:28;99545.72;;;18.83;100.00
50634;BME280;36596;55.798;38.462;2022-07-04T01:33:54;99552.63;;;18.90;100.00
50634;BME280;36596;55.798;38.462;2022-07-04T01:36:20;99552.41;;;18.95;100.00
50634;BME280;36596;55.798;38.462;2022-07-04T01:38:46;99565.06;;;18.96;100.00
50634;BME280;36596;55.798;38.462;2022-07-04T01:41:12;99552.06;;;18.96;100.00
50634;BME280;36596;55.798;38.462;2022-07-04T01:43:37;99542.84;;;18.92;100.00
50634;BME280;36596;55.798;38.462;2022-07-04T01:46:03;99546.41;;;18.93;100.00
50634;BME280;36596;55.798;38.462;2022-07-04T01:48:29;99552.75;;;18.93;100.00
50634;BME280;36596;55.798;38.462;2022-07-04T01:50:55;99552.84;;;18.97;100.00
50634;BME280;36596;55.798;38.462;2022-07-04T01:53:20;99551.72;;;18.98;100.00
50634;BME280;36596;55.798;38.462;2022-07-04T01:55:46;99548.94;;;18.98;100.00
50634;BME280;36596;55.798;38.462;2022-07-04T01:58:12;99548.69;;;19.03;100.00
50634;BME280;36596;55.798;38.462;2022-07-04T02:00:38;99547.97;;;19.06;100.00
50634;BME280;36596;55.798;38.462;2022-07-04T02:03:22;99553.38;;;19.15;100.00
50634;BME280;36596;55.798;38.462;2022-07-04T02:05:48;99546.25;;;19.42;100.00
50634;BME280;36596;55.798;38.462;2022-07-04T02:08:13;99548.78;;;19.63;100.00
50634;BME280;36596;55.798;38.462;2022-07-04T02:10:39;99558.06;;;19.83;100.00
50634;BME280;36596;55.798;38.462;2022-07-04T02:13:05;99566.00;;;19.85;100.00
50634;BME280;36596;55.798;38.462;2022-07-04T02:15:36;99559.69;;;19.84;100.00
50634;BME280;36596;55.798;38.462;2022-07-04T02:18:05;99561.38;;;19.89;100.00
50634;BME280;36596;55.798;38.462;2022-07-04T02:20:32;99555.88;;;20.05;100.00
50634;BME280;36596;55.798;38.462;2022-07-04T02:22:58;99558.81;;;20.12;100.00
50634;BME280;36596;55.798;38.462;2022-07-04T02:25:24;99562.03;;;20.14;100.00
50634;BME280;36596;55.798;38.462;2022-07-04T02:27:55;99564.78;;;20.14;100.00
50634;BME280;36596;55.798;38.462;2022-07-04T02:30:21;99564.34;;;20.12;100.00
50634;BME280;36596;55.798;38.462;2022-07-04T02:32:47;99559.53;;;20.09;100.00
50634;BME280;36596;55.798;38.462;2022-07-04T02:35:13;99565.78;;;20.06;100.00
50634;BME280;36596;55.798;38.462;2022-07-04T02:37:39;99567.47;;;20.11;100.00
50634;BME280;36596;55.798;38.462;2022-07-04T02:40:06;99567.19;;;20.16;100.00
50634;BME280;36596;55.798;38.462;2022-07-04T02:42:33;99574.91;;;20.22;100.00
50634;BME280;36596;55.798;38.462;2022-07-04T02:45:00;99564.19;;;20.37;100.00
50634;BME280;36596;55.798;38.462;2022-07-04T02:47:26;99567.47;;;20.42;100.00
50634;BME280;36596;55.798;38.462;2022-07-04T02:49:52;99574.41;;;20.52;100.00
50634;BME280;36596;55.798;38.462;2022-07-04T02:52:18;99571.22;;;20.50;100.00
50634;BME280;36596;55.798;38.462;2022-07-04T02:54:44;99558.81;;;20.44;100.00
50634;BME280;36596;55.798;38.462;2022-07-04T02:57:12;99567.97;;;20.48;100.00
50634;BME280;36596;55.798;38.462;2022-07-04T02:59:38;99564.94;;;20.53;100.00
50634;BME280;36596;55.798;38.462;2022-07-04T03:02:04;99568.63;;;20.57;100.00
50634;BME280;36596;55.798;38.462;2022-07-04T03:04:30;99562.41;;;20.64;100.00
50634;BME280;36596;55.798;38.462;2022-07-04T03:06:56;99572.09;;;20.70;100.00
50634;BME280;36596;55.798;38.462;2022-07-04T03:09:22;99570.13;;;20.71;100.00
50634;BME280;36596;55.798;38.462;2022-07-04T03:11:48;99582.28;;;20.82;100.00
50634;BME280;36596;55.798;38.462;2022-07-04T03:14:14;99580.38;;;20.86;100.00
50634;BME280;36596;55.798;38.462;2022-07-04T03:16:40;99578.94;;;20.92;100.00
50634;BME280;36596;55.798;38.462;2022-07-04T03:19:06;99583.84;;;20.99;100.00
50634;BME280;36596;55.798;38.462;2022-07-04T03:21:32;99581.59;;;21.05;100.00
50634;BME280;36596;55.798;38.462;2022-07-04T03:23:58;99586.88;;;21.10;100.00
50634;BME280;36596;55.798;38.462;2022-07-04T03:26:28;99577.44;;;21.15;100.00
50634;BME280;36596;55.798;38.462;2022-07-04T03:29:01;99585.91;;;21.22;100.00
50634;BME280;36596;55.798;38.462;2022-07-04T03:31:28;99584.72;;;21.23;100.00
50634;BME280;36596;55.798;38.462;2022-07-04T03:33:54;99576.50;;;21.26;100.00
50634;BME280;36596;55.798;38.462;2022-07-04T03:36:21;99588.13;;;21.32;100.00
50634;BME280;36596;55.798;38.462;2022-07-04T03:38:49;99592.34;;;21.45;100.00
50634;BME280;36596;55.798;38.462;2022-07-04T03:41:15;99590.84;;;21.68;100.00
50634;BME280;36596;55.798;38.462;2022-07-04T03:43:40;99592.47;;;21.92;100.00
50634;BME280;36596;55.798;38.462;2022-07-04T03:46:06;99588.97;;;21.95;100.00
50634;BME280;36596;55.798;38.462;2022-07-04T03:48:32;99593.28;;;21.92;100.00
50634;BME280;36596;55.798;38.462;2022-07-04T03:50:58;99591.97;;;21.86;100.00
50634;BME280;36596;55.798;38.462;2022-07-04T03:53:24;99589.25;;;21.90;100.00
50634;BME280;36596;55.798;38.462;2022-07-04T03:55:50;99591.53;;;21.84;100.00
50634;BME280;36596;55.798;38.462;2022-07-04T03:58:18;99594.06;;;21.93;100.00
50634;BME280;36596;55.798;38.462;2022-07-04T04:00:44;99595.81;;;22.01;100.00
50634;BME280;36596;55.798;38.462;2022-07-04T04:03:13;99593.91;;;22.05;100.00
50634;BME280;36596;55.798;38.462;2022-07-04T04:05:57;99592.22;;;22.00;100.00
50634;BME280;36596;55.798;38.462;2022-07-04T04:08:23;99588.50;;;22.12;100.00
50634;BME280;36596;55.798;38.462;2022-07-04T04:10:49;99586.94;;;22.15;100.00
50634;BME280;36596;55.798;38.462;2022-07-04T04:13:17;99584.53;;;22.37;100.00
50634;BME280;36596;55.798;38.462;2022-07-04T04:15:42;99584.41;;;22.29;100.00
50634;BME280;36596;55.798;38.462;2022-07-04T04:18:08;99590.69;;;22.26;100.00
50634;BME280;36596;55.798;38.462;2022-07-04T04:20:36;99586.00;;;22.30;100.00
50634;BME280;36596;55.798;38.462;2022-07-04T04:23:02;99590.53;;;22.39;100.00
50634;BME280;36596;55.798;38.462;2022-07-04T04:25:33;99594.75;;;22.52;100.00
50634;BME280;36596;55.798;38.462;2022-07-04T04:27:59;99592.88;;;22.60;100.00
50634;BME280;36596;55.798;38.462;2022-07-04T04:30:25;99595.00;;;22.70;100.00
50634;BME280;36596;55.798;38.462;2022-07-04T04:32:50;99595.88;;;22.74;100.00
50634;BME280;36596;55.798;38.462;2022-07-04T04:35:16;99595.72;;;22.90;100.00
50634;BME280;36596;55.798;38.462;2022-07-04T04:37:42;99592.44;;;23.11;100.00
50634;BME280;36596;55.798;38.462;2022-07-04T04:40:09;99598.13;;;23.22;100.00
50634;BME280;36596;55.798;38.462;2022-07-04T04:42:36;99591.59;;;23.37;100.00
50634;BME280;36596;55.798;38.462;2022-07-04T04:45:04;99598.78;;;23.38;100.00
50634;BME280;36596;55.798;38.462;2022-07-04T04:47:30;99598.03;;;23.45;100.00
50634;BME280;36596;55.798;38.462;2022-07-04T04:49:56;99594.84;;;23.43;100.00
50634;BME280;36596;55.798;38.462;2022-07-04T04:52:22;99597.34;;;23.52;100.00
50634;BME280;36596;55.798;38.462;2022-07-04T04:54:48;99589.38;;;23.50;100.00
50634;BME280;36596;55.798;38.462;2022-07-04T04:57:14;99593.03;;;23.58;100.00
50634;BME280;36596;55.798;38.462;2022-07-04T04:59:40;99592.34;;;23.68;100.00
50634;BME280;36596;55.798;38.462;2022-07-04T05:02:05;99591.00;;;23.89;100.00
50634;BME280;36596;55.798;38.462;2022-07-04T05:04:31;99586.81;;;24.10;100.00
50634;BME280;36596;55.798;38.462;2022-07-04T05:06:57;99596.94;;;24.25;100.00
50634;BME280;36596;55.798;38.462;2022-07-04T05:09:23;99587.47;;;24.37;100.00
50634;BME280;36596;55.798;38.462;2022-07-04T05:11:49;99592.41;;;24.58;100.00
50634;BME280;36596;55.798;38.462;2022-07-04T05:14:15;99592.53;;;24.72;100.00
50634;BME280;36596;55.798;38.462;2022-07-04T05:16:41;99592.09;;;24.67;100.00
50634;BME280;36596;55.798;38.462;2022-07-04T05:19:07;99586.63;;;24.81;100.00
50634;BME280;36596;55.798;38.462;2022-07-04T05:21:32;99588.19;;;24.78;100.00
50634;BME280;36596;55.798;38.462;2022-07-04T05:23:58;99584.22;;;24.80;100.00
50634;BME280;36596;55.798;38.462;2022-07-04T05:26:25;99587.41;;;24.82;100.00
50634;BME280;36596;55.798;38.462;2022-07-04T05:28:51;99591.00;;;24.78;100.00
50634;BME280;36596;55.798;38.462;2022-07-04T05:31:17;99599.00;;;24.87;100.00
50634;BME280;36596;55.798;38.462;2022-07-04T05:33:43;99595.09;;;24.99;100.00
50634;BME280;36596;55.798;38.462;2022-07-04T05:36:09;99592.00;;;25.11;100.00
50634;BME280;36596;55.798;38.462;2022-07-04T05:38:34;99585.75;;;25.36;100.00
50634;BME280;36596;55.798;38.462;2022-07-04T05:41:01;99589.41;;;25.51;100.00
50634;BME280;36596;55.798;38.462;2022-07-04T05:43:27;99591.41;;;25.58;100.00
50634;BME280;36596;55.798;38.462;2022-07-04T05:45:53;99589.44;;;25.69;100.00
50634;BME280;36596;55.798;38.462;2022-07-04T05:48:19;99586.69;;;25.73;100.00
50634;BME280;36596;55.798;38.462;2022-07-04T05:50:45;99588.25;;;25.74;100.00
50634;BME280;36596;55.798;38.462;2022-07-04T05:53:11;99576.31;;;25.70;100.00
50634;BME280;36596;55.798;38.462;2022-07-04T05:55:37;99591.47;;;25.76;100.00
50634;BME280;36596;55.798;38.462;2022-07-04T05:58:03;99595.47;;;25.75;100.00
50634;BME280;36596;55.798;38.462;2022-07-04T06:00:29;99586.28;;;25.74;100.00
50634;BME280;36596;55.798;38.462;2022-07-04T06:03:08;99583.88;;;25.76;100.00
50634;BME280;36596;55.798;38.462;2022-07-04T06:05:34;99584.72;;;25.88;100.00
50634;BME280;36596;55.798;38.462;2022-07-04T06:08:00;99588.75;;;26.01;100.00
50634;BME280;36596;55.798;38.462;2022-07-04T06:10:27;99585.56;;;26.06;100.00
50634;BME280;36596;55.798;38.462;2022-07-04T06:12:53;99585.19;;;26.08;100.00
50634;BME280;36596;55.798;38.462;2022-07-04T06:15:19;99579.59;;;26.08;100.00
50634;BME280;36596;55.798;38.462;2022-07-04T06:17:44;99590.78;;;26.22;100.00
50634;BME280;36596;55.798;38.462;2022-07-04T06:20:10;99587.19;;;26.32;100.00
50634;BME280;36596;55.798;38.462;2022-07-04T06:22:41;99581.19;;;26.38;98.67
50634;BME280;36596;55.798;38.462;2022-07-04T06:25:13;99588.00;;;26.47;97.53
50634;BME280;36596;55.798;38.462;2022-07-04T06:27:41;99577.59;;;26.59;97.35
50634;BME280;36596;55.798;38.462;2022-07-04T06:30:08;99576.00;;;26.65;96.48
50634;BME280;36596;55.798;38.462;2022-07-04T06:32:45;99574.00;;;26.76;96.07
50634;BME280;36596;55.798;38.462;2022-07-04T06:35:16;99588.38;;;26.75;95.30
50634;BME280;36596;55.798;38.462;2022-07-04T06:38:01;99586.75;;;26.92;96.66
50634;BME280;36596;55.798;38.462;2022-07-04T06:40:27;99572.72;;;27.02;93.42
50634;BME280;36596;55.798;38.462;2022-07-04T06:42:52;99571.13;;;27.05;89.81
50634;BME280;36596;55.798;38.462;2022-07-04T06:45:18;99581.09;;;27.20;90.82
50634;BME280;36596;55.798;38.462;2022-07-04T06:47:44;99580.69;;;27.22;89.80
50634;BME280;36596;55.798;38.462;2022-07-04T06:50:11;99582.69;;;27.18;91.14
50634;BME280;36596;55.798;38.462;2022-07-04T06:52:37;99574.69;;;27.13;89.40
50634;BME280;36596;55.798;38.462;2022-07-04T06:55:05;99584.69;;;27.10;90.80
50634;BME280;36596;55.798;38.462;2022-07-04T06:57:31;99564.34;;;26.99;87.96
50634;BME280;36596;55.798;38.462;2022-07-04T06:59:57;99567.47;;;27.19;89.00
50634;BME280;36596;55.798;38.462;2022-07-04T07:02:23;99570.53;;;27.57;87.31
50634;BME280;36596;55.798;38.462;2022-07-04T07:04:49;99553.69;;;27.68;83.15
50634;BME280;36596;55.798;38.462;2022-07-04T07:07:15;99558.38;;;27.85;80.27
50634;BME280;36596;55.798;38.462;2022-07-04T07:09:41;99562.06;;;27.71;77.39
50634;BME280;36596;55.798;38.462;2022-07-04T07:12:06;99558.88;;;27.66;80.11
50634;BME280;36596;55.798;38.462;2022-07-04T07:14:32;99560.16;;;27.58;80.25
50634;BME280;36596;55.798;38.462;2022-07-04T07:16:58;99563.03;;;27.32;82.24
50634;BME280;36596;55.798;38.462;2022-07-04T07:19:24;99560.69;;;27.20;82.04
50634;BME280;36596;55.798;38.462;2022-07-04T07:21:50;99568.69;;;27.14;84.03
50634;BME280;36596;55.798;38.462;2022-07-04T07:24:16;99565.47;;;27.16;83.92
50634;BME280;36596;55.798;38.462;2022-07-04T07:26:42;99565.38;;;27.52;85.44
50634;BME280;36596;55.798;38.462;2022-07-04T07:29:08;99567.34;;;27.59;81.11
50634;BME280;36596;55.798;38.462;2022-07-04T07:31:34;99559.16;;;27.89;81.22
50634;BME280;36596;55.798;38.462;2022-07-04T07:34:00;99562.84;;;28.35;80.10
50634;BME280;36596;55.798;38.462;2022-07-04T07:36:25;99559.41;;;28.58;75.99
50634;BME280;36596;55.798;38.462;2022-07-04T07:38:51;99555.19;;;28.85;71.44
50634;BME280;36596;55.798;38.462;2022-07-04T07:41:18;99548.50;;;29.06;71.30
50634;BME280;36596;55.798;38.462;2022-07-04T07:43:44;99550.69;;;29.25;69.59
50634;BME280;36596;55.798;38.462;2022-07-04T07:46:10;99542.91;;;29.40;67.36
50634;BME280;36596;55.798;38.462;2022-07-04T07:48:36;99544.25;;;29.59;66.32
50634;BME280;36596;55.798;38.462;2022-07-04T07:51:02;99551.53;;;29.53;66.15
50634;BME280;36596;55.798;38.462;2022-07-04T07:53:28;99547.59;;;29.51;66.37
50634;BME280;36596;55.798;38.462;2022-07-04T07:55:54;99545.47;;;29.27;61.28
50634;BME280;36596;55.798;38.462;2022-07-04T07:58:20;99549.47;;;29.30;62.72
50634;BME280;36596;55.798;38.462;2022-07-04T08:00:46;99546.94;;;29.39;64.45
50634;BME280;36596;55.798;38.462;2022-07-04T08:03:12;99548.47;;;29.44;60.89
50634;BME280;36596;55.798;38.462;2022-07-04T08:05:57;99545.41;;;29.31;57.66
50634;BME280;36596;55.798;38.462;2022-07-04T08:08:23;99543.03;;;29.29;57.82
50634;BME280;36596;55.798;38.462;2022-07-04T08:10:57;99549.66;;;29.46;58.02
50634;BME280;36596;55.798;38.462;2022-07-04T08:13:22;99542.69;;;29.55;52.05
50634;BME280;36596;55.798;38.462;2022-07-04T08:15:48;99543.44;;;29.59;50.29
50634;BME280;36596;55.798;38.462;2022-07-04T08:18:14;99539.03;;;29.89;51.86
50634;BME280;36596;55.798;38.462;2022-07-04T08:20:42;99538.75;;;30.07;51.84
50634;BME280;36596;55.798;38.462;2022-07-04T08:23:07;99542.72;;;30.09;52.90
50634;BME280;36596;55.798;38.462;2022-07-04T08:25:36;99537.22;;;30.26;52.79
50634;BME280;36596;55.798;38.462;2022-07-04T08:28:01;99538.31;;;30.32;52.11
50634;BME280;36596;55.798;38.462;2022-07-04T08:30:29;99539.56;;;30.55;52.78
50634;BME280;36596;55.798;38.462;2022-07-04T08:32:56;99542.50;;;30.47;50.05
50634;BME280;36596;55.798;38.462;2022-07-04T08:35:22;99539.06;;;29.85;49.92
50634;BME280;36596;55.798;38.462;2022-07-04T08:37:48;99545.47;;;29.27;53.59
50634;BME280;36596;55.798;38.462;2022-07-04T08:40:23;99535.81;;;28.94;54.99
50634;BME280;36596;55.798;38.462;2022-07-04T08:42:49;99550.13;;;28.69;57.13
50634;BME280;36596;55.798;38.462;2022-07-04T08:45:17;99553.41;;;28.56;57.67
50634;BME280;36596;55.798;38.462;2022-07-04T08:47:43;99544.81;;;28.78;58.94
50634;BME280;36596;55.798;38.462;2022-07-04T08:50:11;99537.81;;;29.32;59.65
50634;BME280;36596;55.798;38.462;2022-07-04T08:52:41;99538.13;;;29.68;58.14
50634;BME280;36596;55.798;38.462;2022-07-04T08:55:09;99532.38;;;29.75;58.16
50634;BME280;36596;55.798;38.462;2022-07-04T08:57:55;99540.06;;;29.98;54.38
50634;BME280;36596;55.798;38.462;2022-07-04T09:00:40;99529.41;;;30.61;51.58
50634;BME280;36596;55.798;38.462;2022-07-04T09:03:06;99529.88;;;30.99;47.81
50634;BME280;36596;55.798;38.462;2022-07-04T09:05:33;99529.00;;;31.43;43.49
50634;BME280;36596;55.798;38.462;2022-07-04T09:07:59;99533.38;;;31.80;43.53
50634;BME280;36596;55.798;38.462;2022-07-04T09:10:28;99523.06;;;32.56;41.05
50634;BME280;36596;55.798;38.462;2022-07-04T09:12:54;99524.75;;;33.12;41.53
50634;BME280;36596;55.798;38.462;2022-07-04T09:15:20;99528.72;;;31.57;43.04
50634;BME280;36596;55.798;38.462;2022-07-04T09:17:47;99526.22;;;30.59;47.46
50634;BME280;36596;55.798;38.462;2022-07-04T09:20:21;99528.66;;;30.57;50.08
50634;BME280;36596;55.798;38.462;2022-07-04T09:22:49;99518.47;;;31.07;50.48
50634;BME280;36596;55.798;38.462;2022-07-04T09:25:16;99528.03;;;31.49;46.33
50634;BME280;36596;55.798;38.462;2022-07-04T09:27:45;99526.34;;;31.88;42.93
50634;BME280;36596;55.798;38.462;2022-07-04T09:30:14;99515.50;;;32.53;41.95
50634;BME280;36596;55.798;38.462;2022-07-04T09:33:00;99516.47;;;32.92;41.75
50634;BME280;36596;55.798;38.462;2022-07-04T09:35:28;99514.53;;;32.43;39.93
50634;BME280;36596;55.798;38.462;2022-07-04T09:37:56;99518.97;;;32.28;40.94
50634;BME280;36596;55.798;38.462;2022-07-04T09:40:31;99513.31;;;32.44;40.57
50634;BME280;36596;55.798;38.462;2022-07-04T09:43:10;99504.78;;;32.61;39.47
50634;BME280;36596;55.798;38.462;2022-07-04T09:45:56;99515.44;;;32.86;39.54
50634;BME280;36596;55.798;38.462;2022-07-04T09:48:22;99516.13;;;32.44;38.43
50634;BME280;36596;55.798;38.462;2022-07-04T09:50:49;99516.84;;;31.46;40.72
50634;BME280;36596;55.798;38.462;2022-07-04T09:53:15;99512.09;;;31.43;42.71
50634;BME280;36596;55.798;38.462;2022-07-04T09:55:41;99510.78;;;32.17;41.30
50634;BME280;36596;55.798;38.462;2022-07-04T09:58:12;99504.41;;;32.46;38.02
50634;BME280;36596;55.798;38.462;2022-07-04T10:00:39;99501.53;;;32.79;37.50
50634;BME280;36596;55.798;38.462;2022-07-04T10:03:19;99500.75;;;33.72;35.69
50634;BME280;36596;55.798;38.462;2022-07-04T10:06:00;99497.47;;;33.22;33.38
50634;BME280;36596;55.798;38.462;2022-07-04T10:08:26;99495.22;;;32.87;34.74
50634;BME280;36596;55.798;38.462;2022-07-04T10:10:57;99502.69;;;32.19;35.69
50634;BME280;36596;55.798;38.462;2022-07-04T10:13:23;99494.81;;;32.10;37.22
50634;BME280;36596;55.798;38.462;2022-07-04T10:15:49;99489.00;;;32.34;38.61
50634;BME280;36596;55.798;38.462;2022-07-04T10:18:17;99490.59;;;33.49;37.16
50634;BME280;36596;55.798;38.462;2022-07-04T10:20:44;99487.16;;;34.88;34.17
50634;BME280;36596;55.798;38.462;2022-07-04T10:23:12;99481.63;;;35.38;32.62
50634;BME280;36596;55.798;38.462;2022-07-04T10:25:39;99484.84;;;35.99;31.29
50634;BME280;36596;55.798;38.462;2022-07-04T10:28:05;99470.41;;;36.53;29.27
50634;BME280;36596;55.798;38.462;2022-07-04T10:30:37;99474.72;;;37.19;28.06
50634;BME280;36596;55.798;38.462;2022-07-04T10:33:06;99463.97;;;37.99;26.62
50634;BME280;36596;55.798;38.462;2022-07-04T10:38:27;99466.50;;;39.65;26.97
50634;BME280;36596;55.798;38.462;2022-07-04T10:40:58;99457.25;;;38.36;25.26
50634;BME280;36596;55.798;38.462;2022-07-04T10:54:01;99440.53;;;35.43;28.74
50634;BME280;36596;55.798;38.462;2022-07-04T10:58:54;99438.38;;;36.25;28.26
50634;BME280;36596;55.798;38.462;2022-07-04T11:01:20;99437.91;;;36.35;26.56
50634;BME280;36596;55.798;38.462;2022-07-04T11:03:53;99436.44;;;36.96;26.06
50634;BME280;36596;55.798;38.462;2022-07-04T11:09:19;99433.81;;;39.01;24.77
50634;BME280;36596;55.798;38.462;2022-07-04T11:11:55;99434.66;;;39.52;24.36
50634;BME280;36596;55.798;38.462;2022-07-04T11:14:48;99433.06;;;39.65;24.09
50634;BME280;36596;55.798;38.462;2022-07-04T11:17:27;99442.19;;;38.74;24.59
50634;BME280;36596;55.798;38.462;2022-07-04T11:20:03;99440.69;;;37.00;26.49
50634;BME280;36596;55.798;38.462;2022-07-04T11:22:34;99426.41;;;36.39;27.15
50634;BME280;36596;55.798;38.462;2022-07-04T11:25:00;99436.16;;;36.84;26.95
50634;BME280;36596;55.798;38.462;2022-07-04T11:27:26;99431.25;;;38.19;26.14
50634;BME280;36596;55.798;38.462;2022-07-04T11:29:53;99424.03;;;39.67;23.75
50634;BME280;36596;55.798;38.462;2022-07-04T11:32:19;99422.38;;;40.22;22.12
50634;BME280;36596;55.798;38.462;2022-07-04T11:34:45;99413.22;;;40.39;22.59
50634;BME280;36596;55.798;38.462;2022-07-04T11:37:12;99412.78;;;41.73;21.40
50634;BME280;36596;55.798;38.462;2022-07-04T11:39:38;99409.94;;;42.34;20.96
50634;BME280;36596;55.798;38.462;2022-07-04T11:42:04;99406.81;;;42.49;20.77
50634;BME280;36596;55.798;38.462;2022-07-04T11:44:49;99407.34;;;41.76;21.18
50634;BME280;36596;55.798;38.462;2022-07-04T11:47:35;99407.59;;;42.38;20.18
50634;BME280;36596;55.798;38.462;2022-07-04T11:50:04;99400.09;;;43.42;18.82
50634;BME280;36596;55.798;38.462;2022-07-04T11:52:49;99404.78;;;42.66;19.92
50634;BME280;36596;55.798;38.462;2022-07-04T11:55:20;99389.78;;;42.17;20.04
50634;BME280;36596;55.798;38.462;2022-07-04T11:57:48;99403.31;;;39.93;21.11
50634;BME280;36596;55.798;38.462;2022-07-04T12:00:17;99409.16;;;37.89;23.88
50634;BME280;36596;55.798;38.462;2022-07-04T12:02:45;99410.44;;;36.79;25.26
50634;BME280;36596;55.798;38.462;2022-07-04T12:05:11;99402.94;;;37.09;25.75
50634;BME280;36596;55.798;38.462;2022-07-04T12:07:42;99410.59;;;38.48;24.70
50634;BME280;36596;55.798;38.462;2022-07-04T12:12:40;99385.56;;;41.95;20.75
50634;BME280;36596;55.798;38.462;2022-07-04T12:15:15;99391.56;;;41.48;20.63
50634;BME280;36596;55.798;38.462;2022-07-04T12:17:41;99399.31;;;39.28;21.96
50634;BME280;36596;55.798;38.462;2022-07-04T12:20:15;99400.25;;;38.75;23.76
50634;BME280;36596;55.798;38.462;2022-07-04T12:22:49;99401.97;;;37.79;25.45
50634;BME280;36596;55.798;38.462;2022-07-04T12:25:33;99400.63;;;36.80;27.18
50634;BME280;36596;55.798;38.462;2022-07-04T12:28:07;99400.97;;;36.08;27.90
50634;BME280;36596;55.798;38.462;2022-07-04T12:30:48;99389.06;;;37.45;26.54
50634;BME280;36596;55.798;38.462;2022-07-04T12:33:14;99376.50;;;39.28;24.31
50634;BME280;36596;55.798;38.462;2022-07-04T12:41:11;99369.06;;;42.56;20.90
50634;BME280;36596;55.798;38.462;2022-07-04T12:48:50;99379.34;;;41.48;20.25
50634;BME280;36596;55.798;38.462;2022-07-04T12:51:18;99376.38;;;40.93;21.97
50634;BME280;36596;55.798;38.462;2022-07-04T12:53:45;99377.09;;;40.35;22.98
50634;BME280;36596;55.798;38.462;2022-07-04T12:56:35;99372.81;;;38.08;24.94
50634;BME280;36596;55.798;38.462;2022-07-04T12:59:06;99384.28;;;35.82;27.21
50634;BME280;36596;55.798;38.462;2022-07-04T13:01:32;99373.09;;;36.15;28.21
50634;BME280;36596;55.798;38.462;2022-07-04T13:04:00;99374.78;;;38.56;25.94
50634;BME280;36596;55.798;38.462;2022-07-04T13:06:26;99369.50;;;40.06;23.57
50634;BME280;36596;55.798;38.462;2022-07-04T13:08:59;99358.47;;;41.36;21.73
50634;BME280;36596;55.798;38.462;2022-07-04T13:11:25;99356.69;;;41.38;20.79
50634;BME280;36596;55.798;38.462;2022-07-04T13:14:10;99345.06;;;42.42;19.65
50634;BME280;36596;55.798;38.462;2022-07-04T13:16:38;99346.31;;;43.37;19.99
50634;BME280;36596;55.798;38.462;2022-07-04T13:19:04;99349.78;;;42.96;19.23
50634;BME280;36596;55.798;38.462;2022-07-04T13:21:30;99346.16;;;42.73;19.80